sensor_id;sensor_type;location;lat;lon;timestamp;P1;durP1;ratioP1;P2;durP2;ratioP2
45944;SDS011;31655;48.972;10.686;2022-08-23T00:01:12;5.20;;;4.57;;
45944;SDS011;31655;48.972;10.686;2022-08-23T00:03:39;7.50;;;4.85;;
45944;SDS011;31655;48.972;10.686;2022-08-23T00:06:07;7.95;;;4.88;;
45944;SDS011;31655;48.972;10.686;2022-08-23T00:08:33;6.40;;;5.20;;
45944;SDS011;31655;48.972;10.686;2022-08-23T00:10:59;7.35;;;4.78;;
45944;SDS011;31655;48.972;10.686;2022-08-23T00:13:25;5.22;;;4.80;;
45944;SDS011;31655;48.972;10.686;2022-08-23T00:15:52;6.63;;;5.43;;
45944;SDS011;31655;48.972;10.686;2022-08-23T00:18:18;5.60;;;5.13;;
45944;SDS011;31655;48.972;10.686;2022-08-23T00:20:45;5.63;;;5.07;;
45944;SDS011;31655;48.972;10.686;2022-08-23T00:23:11;5.60;;;5.10;;
45944;SDS011;31655;48.972;10.686;2022-08-23T00:25:37;6.45;;;5.85;;
45944;SDS011;31655;48.972;10.686;2022-08-23T00:28:03;5.68;;;5.15;;
45944;SDS011;31655;48.972;10.686;2022-08-23T00:30:28;5.22;;;4.72;;
45944;SDS011;31655;48.972;10.686;2022-08-23T00:32:55;4.57;;;4.05;;
45944;SDS011;31655;48.972;10.686;2022-08-23T00:35:21;5.53;;;4.70;;
45944;SDS011;31655;48.972;10.686;2022-08-23T00:37:47;6.43;;;4.03;;
45944;SDS011;31655;48.972;10.686;2022-08-23T00:40:14;8.52;;;4.90;;
45944;SDS011;31655;48.972;10.686;2022-08-23T00:45:38;5.38;;;4.10;;
45944;SDS011;31655;48.972;10.686;2022-08-23T00:48:32;7.32;;;4.18;;
45944;SDS011;31655;48.972;10.686;2022-08-23T00:53:34;5.85;;;5.07;;
45944;SDS011;31655;48.972;10.686;2022-08-23T00:56:05;6.05;;;5.15;;
45944;SDS011;31655;48.972;10.686;2022-08-23T00:58:33;5.28;;;4.70;;
45944;SDS011;31655;48.972;10.686;2022-08-23T01:01:00;5.40;;;4.72;;
45944;SDS011;31655;48.972;10.686;2022-08-23T01:03:27;6.43;;;5.43;;
45944;SDS011;31655;48.972;10.686;2022-08-23T01:05:56;7.40;;;5.10;;
45944;SDS011;31655;48.972;10.686;2022-08-23T01:08:26;6.47;;;4.70;;
45944;SDS011;31655;48.972;10.686;2022-08-23T01:10:56;7.53;;;4.60;;
45944;SDS011;31655;48.972;10.686;2022-08-23T01:16:16;5.70;;;4.85;;
45944;SDS011;31655;48.972;10.686;2022-08-23T01:18:46;5.57;;;4.40;;
45944;SDS011;31655;48.972;10.686;2022-08-23T01:21:15;5.78;;;4.07;;
45944;SDS011;31655;48.972;10.686;2022-08-23T01:23:48;6.60;;;4.60;;
45944;SDS011;31655;48.972;10.686;2022-08-23T01:26:18;6.47;;;4.43;;
45944;SDS011;31655;48.972;10.686;2022-08-23T01:28:45;4.75;;;4.35;;
45944;SDS011;31655;48.972;10.686;2022-08-23T01:31:12;5.13;;;4.72;;
45944;SDS011;31655;48.972;10.686;2022-08-23T01:33:39;7.00;;;5.00;;
45944;SDS011;31655;48.972;10.686;2022-08-23T01:36:07;6.10;;;5.28;;
45944;SDS011;31655;48.972;10.686;2022-08-23T01:38:34;7.07;;;4.90;;
45944;SDS011;31655;48.972;10.686;2022-08-23T01:41:00;5.60;;;5.03;;
45944;SDS011;31655;48.972;10.686;2022-08-23T01:43:26;5.60;;;5.05;;
45944;SDS011;31655;48.972;10.686;2022-08-23T01:45:51;6.80;;;5.28;;
45944;SDS011;31655;48.972;10.686;2022-08-23T01:48:19;5.32;;;4.82;;
45944;SDS011;31655;48.972;10.686;2022-08-23T01:50:45;8.27;;;5.63;;
45944;SDS011;31655;48.972;10.686;2022-08-23T01:53:11;4.60;;;4.20;;
45944;SDS011;31655;48.972;10.686;2022-08-23T01:55:38;7.50;;;5.20;;
45944;SDS011;31655;48.972;10.686;2022-08-23T01:58:05;6.07;;;4.63;;
45944;SDS011;31655;48.972;10.686;2022-08-23T02:00:33;9.23;;;5.57;;
45944;SDS011;31655;48.972;10.686;2022-08-23T02:03:01;4.85;;;4.45;;
45944;SDS011;31655;48.972;10.686;2022-08-23T02:05:27;5.97;;;5.05;;
45944;SDS011;31655;48.972;10.686;2022-08-23T02:07:54;5.88;;;5.00;;
45944;SDS011;31655;48.972;10.686;2022-08-23T02:10:20;5.35;;;4.50;;
45944;SDS011;31655;48.972;10.686;2022-08-23T02:12:48;6.28;;;5.22;;
45944;SDS011;31655;48.972;10.686;2022-08-23T02:15:14;6.70;;;5.00;;
45944;SDS011;31655;48.972;10.686;2022-08-23T02:17:41;7.20;;;5.63;;
45944;SDS011;31655;48.972;10.686;2022-08-23T02:20:08;10.60;;;5.10;;
45944;SDS011;31655;48.972;10.686;2022-08-23T02:22:34;7.95;;;5.20;;
45944;SDS011;31655;48.972;10.686;2022-08-23T02:24:59;5.68;;;5.10;;
45944;SDS011;31655;48.972;10.686;2022-08-23T02:27:25;5.63;;;5.07;;
45944;SDS011;31655;48.972;10.686;2022-08-23T02:29:51;7.55;;;5.93;;
45944;SDS011;31655;48.972;10.686;2022-08-23T02:32:17;8.05;;;4.90;;
45944;SDS011;31655;48.972;10.686;2022-08-23T02:34:44;5.75;;;3.92;;
45944;SDS011;31655;48.972;10.686;2022-08-23T02:37:11;4.60;;;4.20;;
45944;SDS011;31655;48.972;10.686;2022-08-23T02:39:38;6.15;;;4.53;;
45944;SDS011;31655;48.972;10.686;2022-08-23T02:42:05;6.65;;;5.10;;
45944;SDS011;31655;48.972;10.686;2022-08-23T02:44:33;5.90;;;4.95;;
45944;SDS011;31655;48.972;10.686;2022-08-23T02:47:00;8.25;;;4.80;;
45944;SDS011;31655;48.972;10.686;2022-08-23T02:49:26;8.20;;;4.93;;
45944;SDS011;31655;48.972;10.686;2022-08-23T02:51:53;6.40;;;4.63;;
45944;SDS011;31655;48.972;10.686;2022-08-23T02:54:18;6.20;;;4.40;;
45944;SDS011;31655;48.972;10.686;2022-08-23T02:56:44;5.00;;;4.50;;
45944;SDS011;31655;48.972;10.686;2022-08-23T02:59:10;6.13;;;4.80;;
45944;SDS011;31655;48.972;10.686;2022-08-23T03:01:36;7.30;;;6.15;;
45944;SDS011;31655;48.972;10.686;2022-08-23T03:04:04;6.97;;;5.90;;
45944;SDS011;31655;48.972;10.686;2022-08-23T03:06:31;9.00;;;6.43;;
45944;SDS011;31655;48.972;10.686;2022-08-23T03:08:57;9.02;;;6.20;;
45944;SDS011;31655;48.972;10.686;2022-08-23T03:11:23;6.22;;;5.00;;
45944;SDS011;31655;48.972;10.686;2022-08-23T03:13:49;6.15;;;5.55;;
45944;SDS011;31655;48.972;10.686;2022-08-23T03:16:16;5.50;;;4.72;;
45944;SDS011;31655;48.972;10.686;2022-08-23T03:18:43;6.10;;;4.03;;
45944;SDS011;31655;48.972;10.686;2022-08-23T03:21:09;5.10;;;4.47;;
45944;SDS011;31655;48.972;10.686;2022-08-23T03:23:35;5.95;;;5.25;;
45944;SDS011;31655;48.972;10.686;2022-08-23T03:26:03;5.65;;;5.10;;
45944;SDS011;31655;48.972;10.686;2022-08-23T03:28:32;9.50;;;5.90;;
45944;SDS011;31655;48.972;10.686;2022-08-23T03:30:59;7.65;;;5.65;;
45944;SDS011;31655;48.972;10.686;2022-08-23T03:33:25;5.68;;;5.18;;
45944;SDS011;31655;48.972;10.686;2022-08-23T03:35:50;5.93;;;4.68;;
45944;SDS011;31655;48.972;10.686;2022-08-23T03:38:16;5.55;;;4.43;;
45944;SDS011;31655;48.972;10.686;2022-08-23T03:40:43;5.70;;;5.18;;
45944;SDS011;31655;48.972;10.686;2022-08-23T03:43:09;6.38;;;4.82;;
45944;SDS011;31655;48.972;10.686;2022-08-23T03:45:36;5.53;;;4.55;;
45944;SDS011;31655;48.972;10.686;2022-08-23T03:48:02;8.98;;;4.55;;
45944;SDS011;31655;48.972;10.686;2022-08-23T03:50:28;5.35;;;4.18;;
45944;SDS011;31655;48.972;10.686;2022-08-23T03:52:53;5.25;;;4.75;;
45944;SDS011;31655;48.972;10.686;2022-08-23T03:55:19;5.50;;;5.00;;
45944;SDS011;31655;48.972;10.686;2022-08-23T03:57:45;5.80;;;4.35;;
45944;SDS011;31655;48.972;10.686;2022-08-23T04:00:11;6.60;;;5.00;;
45944;SDS011;31655;48.972;10.686;2022-08-23T04:02:38;6.35;;;5.75;;
45944;SDS011;31655;48.972;10.686;2022-08-23T04:05:04;7.07;;;5.03;;
45944;SDS011;31655;48.972;10.686;2022-08-23T04:07:30;4.47;;;3.72;;
45944;SDS011;31655;48.972;10.686;2022-08-23T04:09:56;5.03;;;3.88;;
45944;SDS011;31655;48.972;10.686;2022-08-23T04:12:21;6.97;;;4.28;;
45944;SDS011;31655;48.972;10.686;2022-08-23T04:14:47;7.47;;;3.97;;
45944;SDS011;31655;48.972;10.686;2022-08-23T04:17:13;4.95;;;3.90;;
45944;SDS011;31655;48.972;10.686;2022-08-23T04:19:40;3.88;;;3.58;;
45944;SDS011;31655;48.972;10.686;2022-08-23T04:22:10;4.72;;;3.88;;
45944;SDS011;31655;48.972;10.686;2022-08-23T04:24:36;6.28;;;4.18;;
45944;SDS011;31655;48.972;10.686;2022-08-23T04:27:03;4.22;;;3.83;;
45944;SDS011;31655;48.972;10.686;2022-08-23T04:29:29;5.53;;;4.88;;
45944;SDS011;31655;48.972;10.686;2022-08-23T04:31:55;6.18;;;4.03;;
45944;SDS011;31655;48.972;10.686;2022-08-23T04:34:21;5.10;;;3.47;;
45944;SDS011;31655;48.972;10.686;2022-08-23T04:36:47;4.32;;;3.92;;
45944;SDS011;31655;48.972;10.686;2022-08-23T04:39:13;5.40;;;3.90;;
45944;SDS011;31655;48.972;10.686;2022-08-23T04:41:40;8.18;;;4.32;;
45944;SDS011;31655;48.972;10.686;2022-08-23T04:44:24;4.93;;;4.40;;
45944;SDS011;31655;48.972;10.686;2022-08-23T04:46:50;5.30;;;4.28;;
45944;SDS011;31655;48.972;10.686;2022-08-23T04:49:16;5.28;;;4.55;;
45944;SDS011;31655;48.972;10.686;2022-08-23T04:51:42;8.27;;;5.03;;
45944;SDS011;31655;48.972;10.686;2022-08-23T04:54:08;8.52;;;3.92;;
45944;SDS011;31655;48.972;10.686;2022-08-23T04:56:35;4.50;;;3.72;;
45944;SDS011;31655;48.972;10.686;2022-08-23T04:59:02;4.32;;;3.80;;
45944;SDS011;31655;48.972;10.686;2022-08-23T05:01:28;6.72;;;4.50;;
45944;SDS011;31655;48.972;10.686;2022-08-23T05:03:54;6.03;;;5.07;;
45944;SDS011;31655;48.972;10.686;2022-08-23T05:06:20;6.07;;;4.25;;
45944;SDS011;31655;48.972;10.686;2022-08-23T05:08:46;4.82;;;3.83;;
45944;SDS011;31655;48.972;10.686;2022-08-23T05:11:11;3.63;;;3.28;;
45944;SDS011;31655;48.972;10.686;2022-08-23T05:13:37;5.82;;;3.70;;
45944;SDS011;31655;48.972;10.686;2022-08-23T05:16:04;7.15;;;3.80;;
45944;SDS011;31655;48.972;10.686;2022-08-23T05:18:30;3.00;;;2.70;;
45944;SDS011;31655;48.972;10.686;2022-08-23T05:20:57;3.65;;;3.15;;
45944;SDS011;31655;48.972;10.686;2022-08-23T05:23:24;4.50;;;2.30;;
45944;SDS011;31655;48.972;10.686;2022-08-23T05:25:51;6.95;;;3.10;;
45944;SDS011;31655;48.972;10.686;2022-08-23T05:28:24;4.43;;;2.05;;
45944;SDS011;31655;48.972;10.686;2022-08-23T05:30:57;5.05;;;2.08;;
45944;SDS011;31655;48.972;10.686;2022-08-23T05:33:25;5.30;;;2.10;;
45944;SDS011;31655;48.972;10.686;2022-08-23T05:35:51;1.85;;;1.70;;
45944;SDS011;31655;48.972;10.686;2022-08-23T05:38:18;5.60;;;1.70;;
45944;SDS011;31655;48.972;10.686;2022-08-23T05:40:43;5.32;;;1.80;;
45944;SDS011;31655;48.972;10.686;2022-08-23T05:43:11;2.47;;;1.63;;
45944;SDS011;31655;48.972;10.686;2022-08-23T05:45:37;1.60;;;1.50;;
45944;SDS011;31655;48.972;10.686;2022-08-23T05:48:03;4.68;;;2.10;;
45944;SDS011;31655;48.972;10.686;2022-08-23T05:50:28;6.25;;;2.10;;
45944;SDS011;31655;48.972;10.686;2022-08-23T05:52:54;5.45;;;2.42;;
45944;SDS011;31655;48.972;10.686;2022-08-23T05:55:19;3.70;;;2.08;;
45944;SDS011;31655;48.972;10.686;2022-08-23T05:57:46;3.28;;;2.33;;
45944;SDS011;31655;48.972;10.686;2022-08-23T06:00:12;4.40;;;2.15;;
45944;SDS011;31655;48.972;10.686;2022-08-23T06:02:39;3.83;;;2.17;;
45944;SDS011;31655;48.972;10.686;2022-08-23T06:05:07;3.30;;;2.03;;
45944;SDS011;31655;48.972;10.686;2022-08-23T06:07:33;3.83;;;1.80;;
45944;SDS011;31655;48.972;10.686;2022-08-23T06:10:00;3.17;;;2.00;;
45944;SDS011;31655;48.972;10.686;2022-08-23T06:12:26;2.75;;;1.85;;
45944;SDS011;31655;48.972;10.686;2022-08-23T06:14:51;2.65;;;1.90;;
45944;SDS011;31655;48.972;10.686;2022-08-23T06:17:17;3.85;;;2.20;;
45944;SDS011;31655;48.972;10.686;2022-08-23T06:19:43;4.20;;;1.90;;
45944;SDS011;31655;48.972;10.686;2022-08-23T06:22:08;5.53;;;2.30;;
45944;SDS011;31655;48.972;10.686;2022-08-23T06:24:34;7.32;;;2.65;;
45944;SDS011;31655;48.972;10.686;2022-08-23T06:27:00;7.43;;;2.75;;
45944;SDS011;31655;48.972;10.686;2022-08-23T06:29:26;6.85;;;2.67;;
45944;SDS011;31655;48.972;10.686;2022-08-23T06:31:51;6.10;;;2.50;;
45944;SDS011;31655;48.972;10.686;2022-08-23T06:34:24;4.85;;;2.30;;
45944;SDS011;31655;48.972;10.686;2022-08-23T06:36:57;4.07;;;1.95;;
45944;SDS011;31655;48.972;10.686;2022-08-23T06:39:25;4.53;;;2.30;;
45944;SDS011;31655;48.972;10.686;2022-08-23T06:41:52;5.10;;;2.15;;
45944;SDS011;31655;48.972;10.686;2022-08-23T06:44:24;4.15;;;2.20;;
45944;SDS011;31655;48.972;10.686;2022-08-23T06:46:51;6.25;;;2.08;;
45944;SDS011;31655;48.972;10.686;2022-08-23T06:49:17;5.95;;;2.10;;
45944;SDS011;31655;48.972;10.686;2022-08-23T06:51:44;3.10;;;2.63;;
45944;SDS011;31655;48.972;10.686;2022-08-23T06:54:13;5.38;;;2.30;;
45944;SDS011;31655;48.972;10.686;2022-08-23T06:56:40;2.65;;;2.05;;
45944;SDS011;31655;48.972;10.686;2022-08-23T06:59:07;2.85;;;2.28;;
45944;SDS011;31655;48.972;10.686;2022-08-23T07:01:44;2.67;;;2.28;;
45944;SDS011;31655;48.972;10.686;2022-08-23T07:04:16;3.03;;;2.60;;
45944;SDS011;31655;48.972;10.686;2022-08-23T07:06:43;2.92;;;2.63;;
45944;SDS011;31655;48.972;10.686;2022-08-23T07:09:09;5.85;;;2.17;;
45944;SDS011;31655;48.972;10.686;2022-08-23T07:11:35;3.67;;;2.63;;
45944;SDS011;31655;48.972;10.686;2022-08-23T07:14:01;4.45;;;3.40;;
45944;SDS011;31655;48.972;10.686;2022-08-23T07:16:33;3.38;;;2.83;;
45944;SDS011;31655;48.972;10.686;2022-08-23T07:18:59;3.75;;;2.83;;
45944;SDS011;31655;48.972;10.686;2022-08-23T07:21:25;2.65;;;2.17;;
45944;SDS011;31655;48.972;10.686;2022-08-23T07:23:51;4.10;;;3.22;;
45944;SDS011;31655;48.972;10.686;2022-08-23T07:26:17;6.78;;;2.90;;
45944;SDS011;31655;48.972;10.686;2022-08-23T07:28:43;3.00;;;2.70;;
45944;SDS011;31655;48.972;10.686;2022-08-23T07:31:20;7.03;;;2.92;;
45944;SDS011;31655;48.972;10.686;2022-08-23T07:33:47;3.63;;;2.35;;
45944;SDS011;31655;48.972;10.686;2022-08-23T07:36:14;3.55;;;2.65;;
45944;SDS011;31655;48.972;10.686;2022-08-23T07:38:42;3.10;;;2.20;;
45944;SDS011;31655;48.972;10.686;2022-08-23T07:41:09;3.72;;;2.85;;
45944;SDS011;31655;48.972;10.686;2022-08-23T07:43:35;5.90;;;2.75;;
45944;SDS011;31655;48.972;10.686;2022-08-23T07:46:01;5.07;;;2.72;;
45944;SDS011;31655;48.972;10.686;2022-08-23T07:48:27;4.38;;;2.47;;
45944;SDS011;31655;48.972;10.686;2022-08-23T07:50:54;3.80;;;2.78;;
45944;SDS011;31655;48.972;10.686;2022-08-23T07:53:22;4.32;;;2.60;;
45944;SDS011;31655;48.972;10.686;2022-08-23T07:55:48;3.20;;;2.60;;
45944;SDS011;31655;48.972;10.686;2022-08-23T07:58:14;4.20;;;2.67;;
45944;SDS011;31655;48.972;10.686;2022-08-23T08:00:41;3.70;;;2.45;;
45944;SDS011;31655;48.972;10.686;2022-08-23T08:03:06;4.85;;;3.08;;
45944;SDS011;31655;48.972;10.686;2022-08-23T08:05:34;5.28;;;2.33;;
45944;SDS011;31655;48.972;10.686;2022-08-23T08:08:00;4.78;;;3.40;;
45944;SDS011;31655;48.972;10.686;2022-08-23T08:10:26;4.05;;;2.90;;
45944;SDS011;31655;48.972;10.686;2022-08-23T08:12:52;5.82;;;2.80;;
45944;SDS011;31655;48.972;10.686;2022-08-23T08:15:18;5.18;;;2.80;;
45944;SDS011;31655;48.972;10.686;2022-08-23T08:17:47;4.28;;;2.67;;
45944;SDS011;31655;48.972;10.686;2022-08-23T08:20:14;3.17;;;2.50;;
45944;SDS011;31655;48.972;10.686;2022-08-23T08:22:41;6.35;;;3.17;;
45944;SDS011;31655;48.972;10.686;2022-08-23T08:25:07;4.25;;;2.50;;
45944;SDS011;31655;48.972;10.686;2022-08-23T08:27:34;4.40;;;2.92;;
45944;SDS011;31655;48.972;10.686;2022-08-23T08:30:00;3.20;;;2.33;;
45944;SDS011;31655;48.972;10.686;2022-08-23T08:32:25;5.40;;;2.28;;
45944;SDS011;31655;48.972;10.686;2022-08-23T08:34:51;5.53;;;2.83;;
45944;SDS011;31655;48.972;10.686;2022-08-23T08:37:17;4.65;;;2.90;;
45944;SDS011;31655;48.972;10.686;2022-08-23T08:39:42;5.43;;;2.80;;
45944;SDS011;31655;48.972;10.686;2022-08-23T08:44:47;6.60;;;3.38;;
45944;SDS011;31655;48.972;10.686;2022-08-23T08:49:50;6.00;;;2.75;;
45944;SDS011;31655;48.972;10.686;2022-08-23T08:52:37;7.43;;;2.38;;
45944;SDS011;31655;48.972;10.686;2022-08-23T08:55:24;6.07;;;2.20;;
45944;SDS011;31655;48.972;10.686;2022-08-23T08:57:52;5.80;;;2.60;;
45944;SDS011;31655;48.972;10.686;2022-08-23T09:00:20;3.55;;;2.55;;
45944;SDS011;31655;48.972;10.686;2022-08-23T09:02:52;5.13;;;2.38;;
45944;SDS011;31655;48.972;10.686;2022-08-23T09:05:37;5.28;;;2.40;;
45944;SDS011;31655;48.972;10.686;2022-08-23T09:08:19;4.85;;;2.67;;
45944;SDS011;31655;48.972;10.686;2022-08-23T09:17:03;4.60;;;2.00;;
45944;SDS011;31655;48.972;10.686;2022-08-23T09:19:33;5.20;;;1.90;;
45944;SDS011;31655;48.972;10.686;2022-08-23T09:22:04;4.00;;;2.13;;
45944;SDS011;31655;48.972;10.686;2022-08-23T09:24:39;3.20;;;1.98;;
45944;SDS011;31655;48.972;10.686;2022-08-23T09:27:04;4.00;;;2.13;;
45944;SDS011;31655;48.972;10.686;2022-08-23T09:29:33;2.72;;;1.58;;
45944;SDS011;31655;48.972;10.686;2022-08-23T09:32:01;2.78;;;2.00;;
45944;SDS011;31655;48.972;10.686;2022-08-23T09:37:05;2.67;;;1.52;;
45944;SDS011;31655;48.972;10.686;2022-08-23T09:39:35;2.92;;;1.67;;
45944;SDS011;31655;48.972;10.686;2022-08-23T09:42:06;4.13;;;1.88;;
45944;SDS011;31655;48.972;10.686;2022-08-23T09:44:51;3.92;;;1.77;;
45944;SDS011;31655;48.972;10.686;2022-08-23T09:47:17;4.15;;;1.60;;
45944;SDS011;31655;48.972;10.686;2022-08-23T09:49:43;3.15;;;2.42;;
45944;SDS011;31655;48.972;10.686;2022-08-23T09:52:13;3.38;;;1.73;;
45944;SDS011;31655;48.972;10.686;2022-08-23T09:54:43;3.17;;;1.60;;
45944;SDS011;31655;48.972;10.686;2022-08-23T09:57:18;2.70;;;2.05;;
45944;SDS011;31655;48.972;10.686;2022-08-23T09:59:49;5.00;;;2.20;;
45944;SDS011;31655;48.972;10.686;2022-08-23T10:02:23;2.30;;;1.90;;
45944;SDS011;31655;48.972;10.686;2022-08-23T10:08:03;4.18;;;1.83;;
45944;SDS011;31655;48.972;10.686;2022-08-23T10:13:02;4.03;;;1.80;;
45944;SDS011;31655;48.972;10.686;2022-08-23T10:21:23;2.20;;;1.70;;
45944;SDS011;31655;48.972;10.686;2022-08-23T10:33:19;4.32;;;1.70;;
45944;SDS011;31655;48.972;10.686;2022-08-23T10:38:38;3.15;;;1.90;;
45944;SDS011;31655;48.972;10.686;2022-08-23T10:41:17;3.85;;;1.73;;
45944;SDS011;31655;48.972;10.686;2022-08-23T10:46:47;5.75;;;1.98;;
45944;SDS011;31655;48.972;10.686;2022-08-23T10:49:36;6.88;;;2.20;;
45944;SDS011;31655;48.972;10.686;2022-08-23T10:52:04;2.75;;;1.95;;
45944;SDS011;31655;48.972;10.686;2022-08-23T10:54:38;5.15;;;2.30;;
45944;SDS011;31655;48.972;10.686;2022-08-23T10:57:23;6.80;;;3.03;;
45944;SDS011;31655;48.972;10.686;2022-08-23T10:59:56;2.65;;;2.25;;
45944;SDS011;31655;48.972;10.686;2022-08-23T11:05:06;4.85;;;2.10;;
45944;SDS011;31655;48.972;10.686;2022-08-23T11:07:52;6.68;;;2.08;;
45944;SDS011;31655;48.972;10.686;2022-08-23T11:10:28;5.28;;;2.60;;
45944;SDS011;31655;48.972;10.686;2022-08-23T11:12:58;5.07;;;2.38;;
45944;SDS011;31655;48.972;10.686;2022-08-23T11:15:27;4.03;;;2.10;;
45944;SDS011;31655;48.972;10.686;2022-08-23T11:18:03;4.38;;;2.17;;
45944;SDS011;31655;48.972;10.686;2022-08-23T11:26:02;3.05;;;2.42;;
45944;SDS011;31655;48.972;10.686;2022-08-23T11:28:36;5.38;;;3.20;;
45944;SDS011;31655;48.972;10.686;2022-08-23T11:33:42;4.25;;;2.13;;
45944;SDS011;31655;48.972;10.686;2022-08-23T11:36:17;2.28;;;2.08;;
45944;SDS011;31655;48.972;10.686;2022-08-23T11:41:28;7.05;;;2.25;;
45944;SDS011;31655;48.972;10.686;2022-08-23T11:57:03;3.10;;;2.50;;
45944;SDS011;31655;48.972;10.686;2022-08-23T12:00:14;9.95;;;2.95;;
45944;SDS011;31655;48.972;10.686;2022-08-23T12:21:23;5.57;;;2.40;;
45944;SDS011;31655;48.972;10.686;2022-08-23T12:24:22;3.35;;;2.40;;
45944;SDS011;31655;48.972;10.686;2022-08-23T12:29:33;4.28;;;2.22;;
45944;SDS011;31655;48.972;10.686;2022-08-23T12:40:58;4.03;;;2.53;;
45944;SDS011;31655;48.972;10.686;2022-08-23T12:43:55;5.10;;;2.70;;
45944;SDS011;31655;48.972;10.686;2022-08-23T12:49:29;2.42;;;2.13;;
45944;SDS011;31655;48.972;10.686;2022-08-23T12:51:57;5.18;;;2.75;;
45944;SDS011;31655;48.972;10.686;2022-08-23T12:54:41;6.47;;;2.47;;
45944;SDS011;31655;48.972;10.686;2022-08-23T12:57:20;3.97;;;2.55;;
45944;SDS011;31655;48.972;10.686;2022-08-23T12:59:51;5.53;;;2.60;;
45944;SDS011;31655;48.972;10.686;2022-08-23T13:02:32;9.18;;;2.42;;
45944;SDS011;31655;48.972;10.686;2022-08-23T13:05:09;5.28;;;2.78;;
45944;SDS011;31655;48.972;10.686;2022-08-23T13:07:41;10.40;;;2.45;;
45944;SDS011;31655;48.972;10.686;2022-08-23T13:10:07;5.15;;;2.28;;
45944;SDS011;31655;48.972;10.686;2022-08-23T13:12:34;3.65;;;2.17;;
45944;SDS011;31655;48.972;10.686;2022-08-23T13:15:01;4.78;;;2.53;;
45944;SDS011;31655;48.972;10.686;2022-08-23T13:17:30;3.70;;;2.30;;
45944;SDS011;31655;48.972;10.686;2022-08-23T13:22:26;4.90;;;2.47;;
45944;SDS011;31655;48.972;10.686;2022-08-23T13:24:58;5.65;;;2.28;;
45944;SDS011;31655;48.972;10.686;2022-08-23T13:27:31;4.20;;;2.45;;
45944;SDS011;31655;48.972;10.686;2022-08-23T13:32:34;3.85;;;2.13;;
45944;SDS011;31655;48.972;10.686;2022-08-23T13:41:08;2.28;;;1.95;;
45944;SDS011;31655;48.972;10.686;2022-08-23T13:46:13;2.88;;;2.30;;
45944;SDS011;31655;48.972;10.686;2022-08-23T13:51:25;3.40;;;1.65;;
45944;SDS011;31655;48.972;10.686;2022-08-23T13:53:51;3.35;;;1.90;;
45944;SDS011;31655;48.972;10.686;2022-08-23T13:56:18;3.33;;;1.70;;
45944;SDS011;31655;48.972;10.686;2022-08-23T13:58:51;5.03;;;2.25;;
45944;SDS011;31655;48.972;10.686;2022-08-23T14:01:18;3.70;;;1.80;;
45944;SDS011;31655;48.972;10.686;2022-08-23T14:03:44;4.03;;;1.90;;
45944;SDS011;31655;48.972;10.686;2022-08-23T14:06:10;1.90;;;1.80;;
45944;SDS011;31655;48.972;10.686;2022-08-23T14:08:36;2.75;;;1.85;;
45944;SDS011;31655;48.972;10.686;2022-08-23T14:11:02;3.15;;;1.88;;
45944;SDS011;31655;48.972;10.686;2022-08-23T14:13:28;3.97;;;2.05;;
45944;SDS011;31655;48.972;10.686;2022-08-23T14:15:55;2.90;;;1.98;;
45944;SDS011;31655;48.972;10.686;2022-08-23T14:18:26;4.05;;;1.88;;
45944;SDS011;31655;48.972;10.686;2022-08-23T14:20:52;3.92;;;3.60;;
45944;SDS011;31655;48.972;10.686;2022-08-23T14:23:18;9.18;;;2.00;;
45944;SDS011;31655;48.972;10.686;2022-08-23T14:25:43;1.92;;;1.63;;
45944;SDS011;31655;48.972;10.686;2022-08-23T14:28:09;2.45;;;1.52;;
45944;SDS011;31655;48.972;10.686;2022-08-23T14:30:34;1.70;;;1.50;;
45944;SDS011;31655;48.972;10.686;2022-08-23T14:33:01;5.68;;;1.58;;
45944;SDS011;31655;48.972;10.686;2022-08-23T14:35:27;3.70;;;2.10;;
45944;SDS011;31655;48.972;10.686;2022-08-23T14:37:53;2.65;;;1.80;;
45944;SDS011;31655;48.972;10.686;2022-08-23T14:40:19;2.58;;;1.58;;
45944;SDS011;31655;48.972;10.686;2022-08-23T14:42:45;3.95;;;1.92;;
45944;SDS011;31655;48.972;10.686;2022-08-23T14:45:11;2.97;;;2.35;;
45944;SDS011;31655;48.972;10.686;2022-08-23T14:47:38;5.47;;;2.20;;
45944;SDS011;31655;48.972;10.686;2022-08-23T14:50:05;3.05;;;1.67;;
45944;SDS011;31655;48.972;10.686;2022-08-23T14:52:34;3.13;;;1.35;;
45944;SDS011;31655;48.972;10.686;2022-08-23T14:55:01;2.40;;;1.80;;
45944;SDS011;31655;48.972;10.686;2022-08-23T14:57:28;4.05;;;2.03;;
45944;SDS011;31655;48.972;10.686;2022-08-23T14:59:53;4.30;;;1.95;;
45944;SDS011;31655;48.972;10.686;2022-08-23T15:02:20;2.92;;;1.80;;
45944;SDS011;31655;48.972;10.686;2022-08-23T15:04:48;2.63;;;2.03;;
45944;SDS011;31655;48.972;10.686;2022-08-23T15:07:13;2.63;;;1.83;;
45944;SDS011;31655;48.972;10.686;2022-08-23T15:09:39;3.08;;;1.90;;
45944;SDS011;31655;48.972;10.686;2022-08-23T15:12:06;2.70;;;1.60;;
45944;SDS011;31655;48.972;10.686;2022-08-23T15:14:32;2.10;;;1.50;;
45944;SDS011;31655;48.972;10.686;2022-08-23T15:16:58;3.45;;;1.90;;
45944;SDS011;31655;48.972;10.686;2022-08-23T15:19:24;1.98;;;1.42;;
45944;SDS011;31655;48.972;10.686;2022-08-23T15:21:50;2.67;;;2.03;;
45944;SDS011;31655;48.972;10.686;2022-08-23T15:24:15;4.07;;;1.75;;
45944;SDS011;31655;48.972;10.686;2022-08-23T15:26:41;5.22;;;2.08;;
45944;SDS011;31655;48.972;10.686;2022-08-23T15:29:07;3.33;;;1.88;;
45944;SDS011;31655;48.972;10.686;2022-08-23T15:31:32;3.03;;;2.00;;
45944;SDS011;31655;48.972;10.686;2022-08-23T15:33:58;1.92;;;1.80;;
45944;SDS011;31655;48.972;10.686;2022-08-23T15:36:24;4.57;;;1.73;;
45944;SDS011;31655;48.972;10.686;2022-08-23T15:38:50;4.40;;;1.75;;
45944;SDS011;31655;48.972;10.686;2022-08-23T15:41:16;3.10;;;1.50;;
45944;SDS011;31655;48.972;10.686;2022-08-23T15:43:43;3.30;;;1.85;;
45944;SDS011;31655;48.972;10.686;2022-08-23T15:46:10;1.83;;;1.73;;
45944;SDS011;31655;48.972;10.686;2022-08-23T15:48:59;5.30;;;2.08;;
45944;SDS011;31655;48.972;10.686;2022-08-23T15:51:28;3.17;;;2.10;;
45944;SDS011;31655;48.972;10.686;2022-08-23T15:53:54;2.47;;;2.05;;
45944;SDS011;31655;48.972;10.686;2022-08-23T15:56:23;1.65;;;1.45;;
45944;SDS011;31655;48.972;10.686;2022-08-23T15:59:00;3.45;;;1.88;;
45944;SDS011;31655;48.972;10.686;2022-08-23T16:01:26;1.52;;;1.42;;
45944;SDS011;31655;48.972;10.686;2022-08-23T16:03:54;4.07;;;1.90;;
45944;SDS011;31655;48.972;10.686;2022-08-23T16:06:19;10.63;;;2.20;;
45944;SDS011;31655;48.972;10.686;2022-08-23T16:08:46;3.20;;;1.75;;
45944;SDS011;31655;48.972;10.686;2022-08-23T16:11:16;2.72;;;1.92;;
45944;SDS011;31655;48.972;10.686;2022-08-23T16:13:43;1.70;;;1.60;;
45944;SDS011;31655;48.972;10.686;2022-08-23T16:16:25;2.90;;;1.90;;
45944;SDS011;31655;48.972;10.686;2022-08-23T16:18:53;4.90;;;2.13;;
45944;SDS011;31655;48.972;10.686;2022-08-23T16:21:20;2.80;;;1.80;;
45944;SDS011;31655;48.972;10.686;2022-08-23T16:23:47;6.10;;;1.95;;
45944;SDS011;31655;48.972;10.686;2022-08-23T16:26:17;3.25;;;1.70;;
45944;SDS011;31655;48.972;10.686;2022-08-23T16:28:47;1.98;;;1.77;;
45944;SDS011;31655;48.972;10.686;2022-08-23T16:31:14;3.45;;;1.83;;
45944;SDS011;31655;48.972;10.686;2022-08-23T16:33:40;2.42;;;1.83;;
45944;SDS011;31655;48.972;10.686;2022-08-23T16:36:06;3.22;;;1.60;;
45944;SDS011;31655;48.972;10.686;2022-08-23T16:38:32;3.30;;;1.67;;
45944;SDS011;31655;48.972;10.686;2022-08-23T16:40:59;3.90;;;1.67;;
45944;SDS011;31655;48.972;10.686;2022-08-23T16:43:24;1.48;;;1.38;;
45944;SDS011;31655;48.972;10.686;2022-08-23T16:45:50;3.13;;;1.67;;